createdAt,value
2022-08-11T00:01:21.322Z,4.30
2022-08-11T00:03:54.686Z,4.63
2022-08-11T00:06:29.744Z,4.53
2022-08-11T00:08:58.275Z,4.78
2022-08-11T00:11:58.593Z,4.55
2022-08-11T00:14:36.737Z,4.25
2022-08-11T00:17:04.686Z,4.32
2022-08-11T00:20:13.846Z,4.40
2022-08-11T00:22:23.598Z,4.63
2022-08-11T00:24:54.944Z,4.63
2022-08-11T00:27:36.338Z,3.95
2022-08-11T00:30:05.644Z,4.80
2022-08-11T00:32:33.516Z,4.65
2022-08-11T00:35:53.703Z,4.38
2022-08-11T00:37:50.512Z,4.50
2022-08-11T00:40:28.321Z,4.68
2022-08-11T00:43:03.724Z,4.30
2022-08-11T00:45:39.810Z,4.32
2022-08-11T00:48:22.752Z,4.90
2022-08-11T00:52:03.801Z,4.45
2022-08-11T00:54:32.875Z,4.80
2022-08-11T00:57:36.739Z,4.22
2022-08-11T01:00:16.110Z,4.75
2022-08-11T01:03:03.992Z,4.50
2022-08-11T01:06:01.054Z,4.40
2022-08-11T01:08:47.893Z,4.43
2022-08-11T01:11:58.045Z,4.32
2022-08-11T01:14:34.545Z,4.75
2022-08-11T01:17:01.520Z,4.40
2022-08-11T01:20:45.867Z,4.22
2022-08-11T01:23:03.064Z,5.75
2022-08-11T01:25:56.519Z,4.32
2022-08-11T01:29:10.339Z,5.63
2022-08-11T01:31:58.861Z,4.60
2022-08-11T01:34:50.582Z,4.40
2022-08-11T01:37:54.530Z,5.45
2022-08-11T01:40:39.829Z,4.80
2022-08-11T01:43:46.829Z,5.20
2022-08-11T01:46:17.383Z,4.45
2022-08-11T01:48:49.324Z,4.88
2022-08-11T01:51:45.926Z,5.25
2022-08-11T01:54:32.816Z,4.75
2022-08-11T01:57:42.248Z,4.57
2022-08-11T02:00:19.617Z,4.38
2022-08-11T02:03:15.689Z,4.65
2022-08-11T02:06:02.907Z,4.78
2022-08-11T02:08:57.029Z,4.35
2022-08-11T02:11:31.530Z,4.80
2022-08-11T02:14:29.424Z,4.50
2022-08-11T02:17:19.563Z,4.53
2022-08-11T02:20:10.830Z,4.35
2022-08-11T02:23:24.020Z,4.07
2022-08-11T02:26:34.905Z,4.50
2022-08-11T02:29:19.936Z,4.97
2022-08-11T02:32:31.168Z,4.20
2022-08-11T02:35:26.582Z,4.50
2022-08-11T02:38:24.793Z,4.68
2022-08-11T02:41:02.279Z,4.10
2022-08-11T02:44:03.422Z,4.10
2022-08-11T02:46:56.058Z,4.03
2022-08-11T02:50:06.389Z,4.32
2022-08-11T02:53:02.262Z,4.43
2022-08-11T02:55:57.101Z,4.72
2022-08-11T02:59:08.953Z,5.13
2022-08-11T03:01:49.292Z,4.70
2022-08-11T03:04:45.926Z,4.97
2022-08-11T03:10:13.259Z,5.05
2022-08-11T03:13:25.792Z,4.50
2022-08-11T03:16:34.806Z,5.13
2022-08-11T03:19:11.606Z,5.20
2022-08-11T03:22:03.095Z,5.43
2022-08-11T03:24:42.506Z,5.43
2022-08-11T03:27:24.091Z,5.78
2022-08-11T03:30:06.980Z,5.38
2022-08-11T03:33:21.133Z,5.95
2022-08-11T03:36:29.265Z,5.43
2022-08-11T03:39:06.274Z,5.22
2022-08-11T03:42:01.378Z,5.10
2022-08-11T03:45:07.927Z,5.45
2022-08-11T03:47:53.415Z,5.47
2022-08-11T03:50:40.967Z,5.70
2022-08-11T03:53:10.982Z,4.93
2022-08-11T03:56:09.783Z,5.30
2022-08-11T03:58:55.013Z,5.40
2022-08-11T04:01:47.505Z,5.20
2022-08-11T04:04:23.256Z,5.50
2022-08-11T04:07:11.992Z,4.88
2022-08-11T04:10:21.536Z,5.47
2022-08-11T04:13:23.003Z,5.03
2022-08-11T04:16:10.900Z,5.05
2022-08-11T04:19:00.745Z,4.82
2022-08-11T04:22:14.525Z,5.00
2022-08-11T04:25:15.007Z,5.50
2022-08-11T04:28:02.317Z,5.75
2022-08-11T04:31:02.549Z,6.00
2022-08-11T04:34:10.073Z,5.22
2022-08-11T04:37:34.665Z,5.03
2022-08-11T04:40:39.163Z,5.70
2022-08-11T04:43:37.353Z,5.70
2022-08-11T04:46:27.201Z,5.75
2022-08-11T04:49:24.231Z,6.18
2022-08-11T04:52:55.866Z,5.47
2022-08-11T04:55:59.008Z,6.03
2022-08-11T04:59:14.472Z,5.60
2022-08-11T05:02:22.679Z,5.40
2022-08-11T05:05:32.444Z,5.82
2022-08-11T05:08:21.963Z,6.05
2022-08-11T05:10:58.053Z,7.10
2022-08-11T05:13:53.383Z,5.82
2022-08-11T05:16:53.520Z,5.82
2022-08-11T05:19:40.288Z,6.38
2022-08-11T05:22:30.216Z,6.18
2022-08-11T05:26:44.735Z,6.82
2022-08-11T05:28:59.186Z,6.35
2022-08-11T05:31:54.895Z,6.75
2022-08-11T05:34:54.764Z,7.30
2022-08-11T05:37:30.646Z,6.82
2022-08-11T05:40:30.787Z,6.88
2022-08-11T05:43:25.143Z,7.45
2022-08-11T05:46:21.829Z,7.25
2022-08-11T05:49:09.094Z,7.82
2022-08-11T05:52:05.759Z,7.80
2022-08-11T05:55:06.903Z,7.68
2022-08-11T05:57:49.397Z,7.90
2022-08-11T06:00:19.546Z,7.53
2022-08-11T06:02:50.958Z,7.35
2022-08-11T06:05:19.528Z,7.30
2022-08-11T06:07:50.163Z,8.10
2022-08-11T06:10:38.175Z,7.60
2022-08-11T06:13:07.309Z,7.63
2022-08-11T06:15:48.432Z,8.25
2022-08-11T06:18:16.323Z,7.68
2022-08-11T06:20:50.937Z,6.60
2022-08-11T06:23:19.579Z,6.95
2022-08-11T06:25:47.535Z,7.15
2022-08-11T06:28:20.560Z,6.68
2022-08-11T06:30:49.119Z,7.25
2022-08-11T06:33:30.046Z,7.15
2022-08-11T06:36:21.530Z,7.05
2022-08-11T06:39:23.706Z,6.25
2022-08-11T06:42:11.365Z,6.03
2022-08-11T06:44:44.275Z,6.00
2022-08-11T06:47:18.146Z,5.88
2022-08-11T06:50:05.112Z,6.00
2022-08-11T06:52:37.576Z,5.90
2022-08-11T06:55:56.787Z,6.07
2022-08-11T06:58:49.813Z,6.07
2022-08-11T07:01:47.789Z,5.38
2022-08-11T07:04:54.258Z,6.00
2022-08-11T07:08:34.175Z,5.90
2022-08-11T07:11:52.568Z,5.88
2022-08-11T07:14:59.940Z,5.47
2022-08-11T07:17:30.563Z,6.18
2022-08-11T07:20:19.858Z,6.18
2022-08-11T07:23:13.229Z,6.10
2022-08-11T07:26:02.072Z,6.28
2022-08-11T07:28:49.113Z,5.43
2022-08-11T07:31:29.243Z,6.10
2022-08-11T07:34:19.174Z,5.82
2022-08-11T07:36:55.724Z,6.18
2022-08-11T07:39:33.409Z,6.22
2022-08-11T07:42:06.798Z,6.05
2022-08-11T07:44:55.090Z,7.00
2022-08-11T07:47:41.513Z,6.65
2022-08-11T07:50:28.699Z,6.22
2022-08-11T07:53:02.667Z,5.90
2022-08-11T07:55:51.212Z,6.10
2022-08-11T07:58:45.529Z,6.43
2022-08-11T08:01:43.309Z,6.43
2022-08-11T08:04:33.043Z,5.80
2022-08-11T08:07:21.491Z,5.20
2022-08-11T08:10:08.341Z,5.40
2022-08-11T08:12:54.962Z,5.90
2022-08-11T08:15:41.967Z,5.15
2022-08-11T08:18:26.292Z,5.97
2022-08-11T08:20:56.119Z,6.25
2022-08-11T08:23:34.227Z,5.60
2022-08-11T08:26:04.687Z,5.47
2022-08-11T08:28:33.672Z,5.60
2022-08-11T08:31:01.914Z,5.90
2022-08-11T08:33:31.022Z,6.05
2022-08-11T08:36:12.559Z,5.45
2022-08-11T08:38:43.754Z,5.40
2022-08-11T08:41:13.075Z,5.38
2022-08-11T08:43:48.681Z,5.60
2022-08-11T08:46:19.356Z,4.88
2022-08-11T08:48:49.490Z,4.65
2022-08-11T08:52:01.826Z,4.10
2022-08-11T08:54:30.762Z,3.88
2022-08-11T08:56:58.246Z,3.70
2022-08-11T08:59:47.645Z,3.60
2022-08-11T09:02:14.632Z,3.70
2022-08-11T09:04:45.559Z,3.55
2022-08-11T09:07:18.295Z,3.85
2022-08-11T09:09:48.911Z,3.90
2022-08-11T09:12:17.453Z,3.97
2022-08-11T09:15:05.624Z,4.00
2022-08-11T09:17:48.427Z,4.18
2022-08-11T09:20:29.312Z,4.20
2022-08-11T09:26:30.587Z,4.78
2022-08-11T09:28:59.077Z,5.80
2022-08-11T09:31:27.088Z,6.32
2022-08-11T09:33:55.470Z,7.00
2022-08-11T09:36:41.411Z,6.90
2022-08-11T09:39:28.311Z,6.07
2022-08-11T09:42:02.884Z,5.40
2022-08-11T09:44:48.832Z,5.30
2022-08-11T09:47:45.839Z,5.22
2022-08-11T09:50:16.381Z,7.10
2022-08-11T09:53:09.938Z,5.97
2022-08-11T09:55:33.965Z,6.80
2022-08-11T09:58:35.158Z,4.97
2022-08-11T10:01:07.896Z,5.20
2022-08-11T10:03:40.597Z,4.90
2022-08-11T10:06:34.161Z,4.45
2022-08-11T10:09:05.433Z,4.80
2022-08-11T10:11:36.161Z,4.88
2022-08-11T10:14:32.797Z,9.45
2022-08-11T10:17:06.259Z,6.13
2022-08-11T10:19:36.476Z,5.13
2022-08-11T10:22:24.510Z,5.30
2022-08-11T10:25:19.901Z,4.72
2022-08-11T10:28:16.939Z,4.60
2022-08-11T10:31:06.889Z,4.50
2022-08-11T10:33:59.728Z,4.43
2022-08-11T10:36:57.316Z,4.32
2022-08-11T10:39:26.890Z,4.13
2022-08-11T10:42:25.804Z,4.80
2022-08-11T10:44:58.837Z,4.25
2022-08-11T10:47:35.639Z,4.38
2022-08-11T10:50:28.874Z,6.93
2022-08-11T10:53:16.475Z,4.25
2022-08-11T10:58:50.845Z,4.57
2022-08-11T11:01:32.989Z,3.85
2022-08-11T11:04:03.332Z,4.38
2022-08-11T11:06:44.821Z,4.53
2022-08-11T11:09:18.142Z,4.20
2022-08-11T11:12:25.095Z,4.20
2022-08-11T11:15:17.340Z,4.82
2022-08-11T11:18:02.073Z,4.40
2022-08-11T11:20:57.508Z,4.05
2022-08-11T11:24:20.363Z,4.60
2022-08-11T11:27:00.941Z,4.25
2022-08-11T11:29:54.724Z,4.70
2022-08-11T11:32:27.949Z,5.75
2022-08-11T11:35:13.429Z,4.70
2022-08-11T11:38:01.908Z,4.78
2022-08-11T11:40:31.704Z,5.65
2022-08-11T11:43:00.604Z,4.40
2022-08-11T11:45:27.874Z,5.45
2022-08-11T11:47:59.034Z,4.53
2022-08-11T11:50:37.410Z,4.95
2022-08-11T11:53:06.495Z,4.43
2022-08-11T11:55:34.300Z,4.07
2022-08-11T11:58:22.302Z,4.10
2022-08-11T12:01:09.271Z,4.55
2022-08-11T12:03:37.931Z,4.18
2022-08-11T12:06:07.001Z,4.68
2022-08-11T12:08:34.642Z,4.35
2022-08-11T12:11:26.060Z,4.65
2022-08-11T12:13:55.296Z,4.82
2022-08-11T12:16:34.970Z,5.28
2022-08-11T12:19:13.540Z,10.13
2022-08-11T12:22:01.996Z,5.35
2022-08-11T12:24:49.473Z,4.50
2022-08-11T12:27:25.008Z,4.43
2022-08-11T12:30:11.306Z,4.38
2022-08-11T12:32:40.534Z,4.63
2022-08-11T12:35:08.560Z,4.78
2022-08-11T12:37:43.661Z,4.95
2022-08-11T12:41:11.203Z,4.43
2022-08-11T12:43:41.782Z,5.47
2022-08-11T12:46:19.181Z,4.95
2022-08-11T12:49:08.131Z,5.22
2022-08-11T12:52:13.091Z,4.95
2022-08-11T12:54:52.362Z,5.70
2022-08-11T12:57:57.591Z,5.43
2022-08-11T13:00:44.628Z,5.90
2022-08-11T13:03:32.236Z,5.25
2022-08-11T13:06:02.689Z,6.25
2022-08-11T13:08:33.674Z,5.80
2022-08-11T13:11:20.709Z,5.70
2022-08-11T13:13:52.486Z,5.70
2022-08-11T13:16:29.727Z,5.95
2022-08-11T13:19:01.183Z,6.28
2022-08-11T13:21:29.425Z,6.60
2022-08-11T13:24:00.265Z,6.70
2022-08-11T13:26:47.899Z,7.00
2022-08-11T13:29:23.085Z,6.25
2022-08-11T13:31:52.640Z,6.25
2022-08-11T13:34:21.500Z,6.18
2022-08-11T13:37:00.760Z,6.75
2022-08-11T13:39:31.376Z,6.82
2022-08-11T13:42:00.289Z,6.57
2022-08-11T13:44:30.221Z,6.65
2022-08-11T13:47:01.668Z,7.07
2022-08-11T13:49:31.027Z,7.57
2022-08-11T13:51:59.185Z,7.38
2022-08-11T13:54:28.854Z,7.38
2022-08-11T13:56:59.901Z,7.38
2022-08-11T13:59:29.989Z,7.63
2022-08-11T14:02:21.286Z,7.28
2022-08-11T14:05:05.419Z,7.63
2022-08-11T14:07:48.001Z,7.35
2022-08-11T14:10:17.375Z,7.53
2022-08-11T14:13:09.408Z,7.43
2022-08-11T14:15:36.896Z,7.90
2022-08-11T14:18:05.551Z,7.57
2022-08-11T14:20:54.749Z,8.00
2022-08-11T14:23:29.547Z,7.72
2022-08-11T14:26:16.493Z,7.47
2022-08-11T14:28:45.054Z,8.07
2022-08-11T14:31:16.570Z,7.82
2022-08-11T14:34:00.481Z,7.25
2022-08-11T14:36:40.699Z,8.18
2022-08-11T14:39:13.731Z,7.18
2022-08-11T14:42:10.219Z,7.53
2022-08-11T14:45:02.014Z,7.93
2022-08-11T14:47:33.219Z,7.55
2022-08-11T14:50:09.915Z,7.55
2022-08-11T14:52:39.119Z,7.43
2022-08-11T14:55:26.061Z,6.93
2022-08-11T14:57:55.913Z,7.50
2022-08-11T15:00:24.209Z,7.82
2022-08-11T15:03:10.480Z,7.25
2022-08-11T15:05:55.858Z,8.02
2022-08-11T15:08:45.733Z,7.50
2022-08-11T15:11:32.777Z,8.93
2022-08-11T15:14:02.040Z,8.05
2022-08-11T15:16:48.343Z,7.78
2022-08-11T15:19:19.633Z,8.30
2022-08-11T15:22:05.467Z,8.75
2022-08-11T15:24:35.548Z,7.63
2022-08-11T15:27:24.625Z,8.57
2022-08-11T15:30:20.966Z,8.50
2022-08-11T15:33:17.607Z,7.35
2022-08-11T15:36:03.012Z,8.77
2022-08-11T15:38:36.228Z,8.07
2022-08-11T15:41:24.021Z,7.88
2022-08-11T15:44:12.835Z,7.75
2022-08-11T15:46:49.163Z,8.60
2022-08-11T15:50:11.128Z,8.40
2022-08-11T15:52:22.010Z,8.00
2022-08-11T15:54:50.180Z,7.80
2022-08-11T15:57:45.164Z,8.52
2022-08-11T16:00:31.268Z,8.23
2022-08-11T16:03:18.691Z,8.25
2022-08-11T16:05:53.186Z,8.38
2022-08-11T16:08:32.580Z,8.40
2022-08-11T16:11:02.225Z,8.50
2022-08-11T16:13:32.781Z,8.27
2022-08-11T16:16:16.584Z,8.15
2022-08-11T16:18:56.170Z,8.88
2022-08-11T16:21:35.263Z,9.20
2022-08-11T16:25:57.987Z,10.32
2022-08-11T16:27:08.860Z,8.10
2022-08-11T16:29:45.655Z,8.05
2022-08-11T16:32:18.705Z,9.75
2022-08-11T16:35:11.379Z,7.95
2022-08-11T16:37:58.879Z,8.30
2022-08-11T16:40:26.570Z,8.75
2022-08-11T16:43:13.723Z,8.73
2022-08-11T16:46:00.884Z,9.10
2022-08-11T16:48:37.408Z,9.60
2022-08-11T16:51:11.265Z,9.18
2022-08-11T16:53:59.780Z,9.25
2022-08-11T16:56:43.496Z,8.55
2022-08-11T16:59:17.873Z,8.30
2022-08-11T17:01:58.729Z,9.75
2022-08-11T17:05:06.216Z,8.80
2022-08-11T17:07:52.164Z,9.10
2022-08-11T17:10:53.367Z,8.38
2022-08-11T17:13:40.251Z,8.15
2022-08-11T17:16:12.734Z,9.15
2022-08-11T17:18:57.603Z,8.50
2022-08-11T17:22:01.193Z,7.50
2022-08-11T17:24:31.652Z,8.40
2022-08-11T17:27:00.758Z,8.52
2022-08-11T17:29:53.768Z,8.50
2022-08-11T17:33:01.086Z,9.13
2022-08-11T17:35:39.306Z,9.02
2022-08-11T17:38:16.543Z,9.27
2022-08-11T17:41:10.783Z,8.32
2022-08-11T17:44:10.213Z,8.65
2022-08-11T17:46:59.204Z,8.02
2022-08-11T17:49:37.212Z,8.90
2022-08-11T17:52:31.877Z,7.95
2022-08-11T17:55:51.088Z,8.40
2022-08-11T17:58:26.510Z,9.30
2022-08-11T18:00:55.097Z,8.48
2022-08-11T18:03:29.284Z,7.57
2022-08-11T18:05:57.682Z,9.38
2022-08-11T18:08:44.523Z,8.10
2022-08-11T18:12:10.212Z,7.82
2022-08-11T18:14:38.773Z,8.70
2022-08-11T18:17:24.855Z,8.43
2022-08-11T18:20:10.361Z,8.43
2022-08-11T18:22:59.624Z,8.23
2022-08-11T18:25:58.572Z,8.90
2022-08-11T18:29:01.415Z,8.55
2022-08-11T18:31:49.160Z,8.50
2022-08-11T18:34:39.580Z,8.38
2022-08-11T18:37:38.503Z,7.97
2022-08-11T18:40:32.776Z,8.13
2022-08-11T18:43:27.093Z,7.72
2022-08-11T18:46:21.204Z,7.95
2022-08-11T18:49:16.732Z,8.25
2022-08-11T18:52:08.892Z,8.63
2022-08-11T18:54:58.705Z,7.80
2022-08-11T18:57:53.890Z,9.70
2022-08-11T19:00:41.712Z,10.10
2022-08-11T19:03:30.408Z,8.38
2022-08-11T19:06:39.436Z,8.35
2022-08-11T19:09:30.410Z,8.10
2022-08-11T19:12:19.249Z,12.38
2022-08-11T19:15:08.390Z,8.52
2022-08-11T19:17:57.177Z,7.70
2022-08-11T19:20:45.371Z,7.72
2022-08-11T19:23:35.331Z,8.50
2022-08-11T19:26:22.930Z,8.60
2022-08-11T19:30:12.037Z,7.85
2022-08-11T19:32:18.143Z,7.93
2022-08-11T19:35:05.626Z,8.07
2022-08-11T19:37:52.138Z,8.30
2022-08-11T19:40:39.467Z,8.65
2022-08-11T19:43:27.372Z,8.63
2022-08-11T19:46:17.091Z,8.43
2022-08-11T19:49:05.284Z,8.57
2022-08-11T19:51:54.112Z,8.60
2022-08-11T19:54:44.044Z,8.52
2022-08-11T19:57:32.525Z,8.45
2022-08-11T20:00:24.753Z,8.15
2022-08-11T20:03:15.972Z,9.05
2022-08-11T20:08:48.940Z,8.73
2022-08-11T20:11:36.061Z,9.27
2022-08-11T20:14:25.060Z,8.73
2022-08-11T20:17:12.783Z,8.85
2022-08-11T20:22:49.320Z,8.57
2022-08-11T20:25:36.511Z,9.07
2022-08-11T20:28:25.043Z,10.35
2022-08-11T20:31:12.545Z,8.07
2022-08-11T20:33:59.002Z,9.13
2022-08-11T20:36:48.755Z,8.90
2022-08-11T20:39:41.912Z,8.30
2022-08-11T20:42:30.780Z,8.65
2022-08-11T20:45:18.766Z,8.93
2022-08-11T20:48:09.910Z,9.23
2022-08-11T20:51:06.315Z,9.15
2022-08-11T20:53:56.671Z,8.50
2022-08-11T20:56:44.653Z,8.80
2022-08-11T20:59:33.188Z,8.77
2022-08-11T21:02:27.625Z,9.75
2022-08-11T21:05:15.783Z,9.05
2022-08-11T21:08:09.010Z,9.07
2022-08-11T21:10:59.356Z,8.45
2022-08-11T21:13:53.461Z,8.98
2022-08-11T21:16:49.096Z,8.65
2022-08-11T21:19:59.661Z,9.00
2022-08-11T21:23:05.822Z,8.98
2022-08-11T21:25:59.842Z,9.13
2022-08-11T21:28:47.110Z,9.02
2022-08-11T21:31:33.684Z,8.73
2022-08-11T21:34:21.190Z,9.10
2022-08-11T21:37:08.522Z,8.60
2022-08-11T21:39:55.260Z,8.90
2022-08-11T21:42:42.706Z,9.75
2022-08-11T21:45:30.325Z,9.05
2022-08-11T21:48:16.761Z,8.90
2022-08-11T21:51:02.419Z,8.90
2022-08-11T21:53:49.923Z,8.98
2022-08-11T21:56:36.792Z,9.07
2022-08-11T21:59:22.465Z,8.77
2022-08-11T22:02:12.584Z,8.63
2022-08-11T22:04:59.176Z,9.30
2022-08-11T22:07:44.981Z,8.60
2022-08-11T22:10:42.330Z,9.43
2022-08-11T22:13:31.552Z,9.23
2022-08-11T22:16:19.719Z,8.93
2022-08-11T22:19:09.492Z,9.52
2022-08-11T22:22:03.187Z,8.63
2022-08-11T22:24:51.479Z,8.80
2022-08-11T22:27:37.326Z,8.75
2022-08-11T22:33:10.449Z,9.40
2022-08-11T22:35:57.919Z,9.00
2022-08-11T22:38:45.079Z,9.40
2022-08-11T22:41:31.153Z,9.18
2022-08-11T22:44:16.991Z,8.90
2022-08-11T22:47:03.320Z,9.55
2022-08-11T22:49:57.649Z,9.00
2022-08-11T22:52:45.003Z,9.13
2022-08-11T22:55:31.699Z,9.52
2022-08-11T22:58:17.666Z,10.02
2022-08-11T23:03:49.853Z,9.88
2022-08-11T23:06:37.253Z,9.88
2022-08-11T23:09:23.721Z,10.05
2022-08-11T23:12:10.762Z,9.48
2022-08-11T23:14:58.698Z,9.80
2022-08-11T23:17:46.393Z,9.52
2022-08-11T23:20:47.166Z,9.30
2022-08-11T23:23:35.329Z,9.30
2022-08-11T23:26:22.514Z,9.57
2022-08-11T23:29:08.069Z,9.65
2022-08-11T23:31:54.683Z,9.73
2022-08-11T23:35:04.473Z,9.45
2022-08-11T23:38:00.242Z,9.57
2022-08-11T23:40:46.203Z,9.48
2022-08-11T23:46:27.813Z,8.73
2022-08-11T23:49:20.159Z,9.43
2022-08-11T23:52:07.149Z,9.52
2022-08-11T23:54:54.144Z,9.30
2022-08-11T23:57:47.655Z,9.80
